createdAt,value
2022-09-14T00:01:08.304Z,93280.20
2022-09-14T00:02:12.877Z,93280.58
2022-09-14T00:03:17.413Z,93281.02
2022-09-14T00:04:19.956Z,93275.00
2022-09-14T00:05:21.666Z,93274.14
2022-09-14T00:06:24.040Z,93267.99
2022-09-14T00:07:27.277Z,93272.36
2022-09-14T00:08:29.926Z,93272.09
2022-09-14T00:09:31.584Z,93271.41
2022-09-14T00:10:33.487Z,93272.05
2022-09-14T00:11:36.803Z,93270.34
2022-09-14T00:12:38.328Z,93269.77
2022-09-14T00:13:42.228Z,93266.26
2022-09-14T00:14:43.938Z,93265.84
2022-09-14T00:15:45.693Z,93261.23
2022-09-14T00:16:48.923Z,93258.16
2022-09-14T00:17:50.790Z,93257.04
2022-09-14T00:18:54.403Z,93258.89
2022-09-14T00:19:56.051Z,93257.70
2022-09-14T00:21:03.258Z,93259.66
2022-09-14T00:22:08.427Z,93258.41
2022-09-14T00:23:10.042Z,93253.84
2022-09-14T00:24:11.648Z,93254.09
2022-09-14T00:25:13.286Z,93252.28
2022-09-14T00:26:18.515Z,93246.48
2022-09-14T00:27:20.115Z,93248.52
2022-09-14T00:28:21.940Z,93240.46
2022-09-14T00:29:23.704Z,93240.27
2022-09-14T00:30:25.545Z,93249.88
2022-09-14T00:31:27.307Z,93247.70
2022-09-14T00:32:29.575Z,93249.18
2022-09-14T00:33:31.646Z,93254.95
2022-09-14T00:34:34.428Z,93252.41
2022-09-14T00:35:36.195Z,93253.48
2022-09-14T00:36:41.426Z,93253.11
2022-09-14T00:37:43.125Z,93249.48
2022-09-14T00:38:46.419Z,93251.09
2022-09-14T00:39:48.211Z,93255.36
2022-09-14T00:40:58.181Z,93259.17
2022-09-14T00:41:59.773Z,93254.50
2022-09-14T00:43:01.784Z,93254.04
2022-09-14T00:44:26.336Z,93258.51
2022-09-14T00:45:28.145Z,93255.25
2022-09-14T00:46:32.247Z,93250.71
2022-09-14T00:47:34.352Z,93257.77
2022-09-14T00:48:36.046Z,93256.13
2022-09-14T00:49:40.237Z,93254.77
2022-09-14T00:50:42.085Z,93256.45
2022-09-14T00:51:52.637Z,93254.55
2022-09-14T00:53:11.676Z,93252.56
2022-09-14T00:54:13.637Z,93251.91
2022-09-14T00:55:19.809Z,93249.77
2022-09-14T00:56:21.560Z,93248.80
2022-09-14T00:57:25.257Z,93252.45
2022-09-14T00:58:27.110Z,93253.76
2022-09-14T00:59:30.763Z,93253.82
2022-09-14T01:00:32.346Z,93259.21
2022-09-14T01:01:34.081Z,93258.59
2022-09-14T01:02:37.419Z,93257.10
2022-09-14T01:03:39.165Z,93259.13
2022-09-14T01:04:42.288Z,93259.22
2022-09-14T01:06:27.045Z,93260.08
2022-09-14T01:07:55.973Z,93253.77
2022-09-14T01:09:15.922Z,93250.52
2022-09-14T01:10:48.867Z,93241.06
2022-09-14T01:11:59.170Z,93238.42
2022-09-14T01:13:19.648Z,93233.71
2022-09-14T01:14:36.296Z,93233.23
2022-09-14T01:15:43.846Z,93231.73
2022-09-14T01:16:54.805Z,93227.05
2022-09-14T01:18:23.180Z,93226.67
2022-09-14T01:19:43.625Z,93224.32
2022-09-14T01:21:07.189Z,93226.97
2022-09-14T01:22:14.443Z,93222.50
2022-09-14T01:23:32.482Z,93223.00
2022-09-14T01:24:45.287Z,93220.70
2022-09-14T01:26:14.476Z,93218.42
2022-09-14T01:27:41.115Z,93211.38
2022-09-14T01:29:07.466Z,93205.91
2022-09-14T01:30:12.437Z,93203.03
2022-09-14T01:31:43.014Z,93202.41
2022-09-14T01:32:49.028Z,93205.46
2022-09-14T01:34:04.904Z,93206.23
2022-09-14T01:35:35.469Z,93204.13
2022-09-14T01:36:40.951Z,93206.15
2022-09-14T01:37:48.497Z,93204.85
2022-09-14T01:38:52.776Z,93209.55
2022-09-14T01:40:14.361Z,93211.52
2022-09-14T01:41:23.498Z,93210.80
2022-09-14T01:42:27.920Z,93206.58
2022-09-14T01:43:46.205Z,93208.73
2022-09-14T01:44:55.029Z,93206.44
2022-09-14T01:46:04.109Z,93209.94
2022-09-14T01:47:38.249Z,93209.19
2022-09-14T01:48:48.397Z,93210.52
2022-09-14T01:49:55.125Z,93207.71
2022-09-14T01:50:59.770Z,93208.60
2022-09-14T01:52:08.542Z,93207.12
2022-09-14T01:53:10.260Z,93204.78
2022-09-14T01:54:27.380Z,93209.11
2022-09-14T01:55:36.410Z,93206.84
2022-09-14T01:56:47.317Z,93207.80
2022-09-14T01:58:05.347Z,93209.11
2022-09-14T01:59:27.260Z,93207.98
2022-09-14T02:00:30.451Z,93208.97
2022-09-14T02:01:39.610Z,93208.67
2022-09-14T02:02:52.073Z,93211.57
2022-09-14T02:04:00.358Z,93207.05
2022-09-14T02:05:30.795Z,93208.38
2022-09-14T02:06:38.290Z,93202.41
2022-09-14T02:07:40.466Z,93205.35
2022-09-14T02:08:42.365Z,93201.88
2022-09-14T02:09:45.485Z,93203.86
2022-09-14T02:10:47.140Z,93202.35
2022-09-14T02:11:49.166Z,93201.42
2022-09-14T02:12:52.800Z,93202.29
2022-09-14T02:13:54.833Z,93197.92
2022-09-14T02:15:06.202Z,93199.55
2022-09-14T02:16:23.829Z,93199.61
2022-09-14T02:17:25.682Z,93202.19
2022-09-14T02:18:27.769Z,93204.91
2022-09-14T02:19:35.051Z,93205.63
2022-09-14T02:20:51.070Z,93210.09
2022-09-14T02:21:53.100Z,93216.34
2022-09-14T02:22:55.221Z,93218.13
2022-09-14T02:24:00.718Z,93226.52
2022-09-14T02:25:02.955Z,93234.31
2022-09-14T02:26:05.101Z,93240.93
2022-09-14T02:27:07.334Z,93240.31
2022-09-14T02:28:09.279Z,93235.23
2022-09-14T02:29:10.947Z,93232.86
2022-09-14T02:30:13.155Z,93228.84
2022-09-14T02:31:15.381Z,93227.20
2022-09-14T02:32:35.423Z,93223.31
2022-09-14T02:34:04.292Z,93226.39
2022-09-14T02:35:22.248Z,93227.55
2022-09-14T02:36:51.688Z,93226.64
2022-09-14T02:38:04.395Z,93223.58
2022-09-14T02:39:37.756Z,93220.81
2022-09-14T02:40:53.034Z,93221.62
2022-09-14T02:42:05.149Z,93221.67
2022-09-14T02:43:34.270Z,93220.12
2022-09-14T02:44:58.981Z,93218.39
2022-09-14T02:46:31.496Z,93213.13
2022-09-14T02:47:56.689Z,93208.62
2022-09-14T02:49:10.387Z,93200.89
2022-09-14T02:50:30.579Z,93194.00
2022-09-14T02:51:43.500Z,93188.25
2022-09-14T02:52:56.920Z,93184.66
2022-09-14T02:54:08.767Z,93187.33
2022-09-14T02:55:14.406Z,93189.50
2022-09-14T02:56:18.294Z,93186.08
2022-09-14T02:57:19.900Z,93186.25
2022-09-14T02:58:21.527Z,93185.43
2022-09-14T02:59:23.219Z,93188.79
2022-09-14T03:00:25.049Z,93187.29
2022-09-14T03:01:27.545Z,93187.21
2022-09-14T03:02:29.330Z,93186.33
2022-09-14T03:03:35.667Z,93180.44
2022-09-14T03:04:37.799Z,93178.54
2022-09-14T03:05:40.071Z,93177.84
2022-09-14T03:06:41.632Z,93170.86
2022-09-14T03:07:43.230Z,93167.89
2022-09-14T03:08:45.000Z,93168.45
2022-09-14T03:09:49.455Z,93159.52
2022-09-14T03:10:51.065Z,93159.26
2022-09-14T03:11:52.717Z,93160.09
2022-09-14T03:12:54.387Z,93156.92
2022-09-14T03:13:56.145Z,93157.84
2022-09-14T03:14:57.819Z,93154.02
2022-09-14T03:16:05.074Z,93156.34
2022-09-14T03:17:06.842Z,93155.49
2022-09-14T03:18:13.637Z,93155.10
2022-09-14T03:19:17.110Z,93152.37
2022-09-14T03:20:22.248Z,93150.45
2022-09-14T03:21:23.953Z,93148.05
2022-09-14T03:22:25.605Z,93145.77
2022-09-14T03:23:30.426Z,93149.25
2022-09-14T03:24:32.090Z,93150.46
2022-09-14T03:25:38.347Z,93149.35
2022-09-14T03:26:40.438Z,93149.59
2022-09-14T03:27:42.165Z,93147.63
2022-09-14T03:28:44.681Z,93145.70
2022-09-14T03:29:46.402Z,93145.95
2022-09-14T03:30:48.309Z,93142.52
2022-09-14T03:31:49.947Z,93141.70
2022-09-14T03:32:52.344Z,93135.35
2022-09-14T03:34:00.068Z,93133.11
2022-09-14T03:35:01.783Z,93135.22
2022-09-14T03:36:12.094Z,93135.02
2022-09-14T03:37:14.665Z,93137.66
2022-09-14T03:38:16.442Z,93135.62
2022-09-14T03:39:18.084Z,93137.66
2022-09-14T03:40:22.105Z,93134.11
2022-09-14T03:41:27.226Z,93129.85
2022-09-14T03:42:29.245Z,93130.66
2022-09-14T03:43:31.011Z,93127.21
2022-09-14T03:44:32.609Z,93129.39
2022-09-14T03:45:36.414Z,93131.85
2022-09-14T03:46:38.648Z,93130.16
2022-09-14T03:47:40.791Z,93129.96
2022-09-14T03:48:42.920Z,93126.42
2022-09-14T03:49:44.591Z,93131.18
2022-09-14T03:50:46.124Z,93135.90
2022-09-14T03:51:50.329Z,93132.11
2022-09-14T03:52:52.363Z,93130.71
2022-09-14T03:53:53.955Z,93125.60
2022-09-14T03:54:55.621Z,93121.71
2022-09-14T03:55:59.243Z,93124.19
2022-09-14T03:57:00.863Z,93121.09
2022-09-14T03:58:02.785Z,93120.17
2022-09-14T03:59:04.430Z,93115.20
2022-09-14T04:00:07.275Z,93115.69
2022-09-14T04:01:14.410Z,93115.56
2022-09-14T04:02:16.371Z,93113.86
2022-09-14T04:03:18.741Z,93115.27
2022-09-14T04:04:20.549Z,93115.31
2022-09-14T04:05:22.465Z,93119.25
2022-09-14T04:06:25.561Z,93118.19
2022-09-14T04:07:27.525Z,93113.88
2022-09-14T04:08:29.275Z,93115.39
2022-09-14T04:09:34.051Z,93116.45
2022-09-14T04:10:35.621Z,93115.63
2022-09-14T04:11:37.182Z,93112.40
2022-09-14T04:12:39.572Z,93112.20
2022-09-14T04:13:42.513Z,93113.50
2022-09-14T04:14:44.062Z,93117.98
2022-09-14T04:15:56.049Z,93121.14
2022-09-14T04:16:57.879Z,93122.29
2022-09-14T04:18:02.386Z,93122.48
2022-09-14T04:19:04.634Z,93122.02
2022-09-14T04:20:07.217Z,93122.81
2022-09-14T04:21:18.211Z,93127.91
2022-09-14T04:22:19.941Z,93129.06
2022-09-14T04:23:22.390Z,93133.71
2022-09-14T04:24:27.947Z,93134.37
2022-09-14T04:25:31.818Z,93135.10
2022-09-14T04:26:34.261Z,93135.98
2022-09-14T04:27:35.870Z,93134.70
2022-09-14T04:28:40.640Z,93133.88
2022-09-14T04:29:42.395Z,93134.06
2022-09-14T04:30:44.210Z,93134.95
2022-09-14T04:31:46.236Z,93135.20
2022-09-14T04:32:48.060Z,93138.27
2022-09-14T04:33:50.870Z,93141.65
2022-09-14T04:34:52.622Z,93141.45
2022-09-14T04:36:03.185Z,93142.08
2022-09-14T04:37:04.858Z,93140.20
2022-09-14T04:38:06.875Z,93138.78
2022-09-14T04:39:11.442Z,93138.66
2022-09-14T04:40:14.632Z,93141.91
2022-09-14T04:41:19.906Z,93144.44
2022-09-14T04:42:21.511Z,93145.71
2022-09-14T04:43:24.455Z,93145.39
2022-09-14T04:44:27.278Z,93145.39
2022-09-14T04:45:30.153Z,93143.75
2022-09-14T04:46:43.464Z,93143.36
2022-09-14T04:47:47.876Z,93147.80
2022-09-14T04:48:50.515Z,93143.16
2022-09-14T04:49:52.203Z,93140.99
2022-09-14T04:50:54.172Z,93132.55
2022-09-14T04:51:55.766Z,93131.40
2022-09-14T04:52:57.463Z,93133.14
2022-09-14T04:54:00.853Z,93137.02
2022-09-14T04:55:02.631Z,93135.89
2022-09-14T04:56:07.760Z,93135.06
2022-09-14T04:57:09.441Z,93130.46
2022-09-14T04:58:11.137Z,93126.86
2022-09-14T04:59:15.066Z,93124.18
2022-09-14T05:00:16.790Z,93125.14
2022-09-14T05:01:21.414Z,93120.87
2022-09-14T05:02:23.292Z,93123.59
2022-09-14T05:03:25.142Z,93121.14
2022-09-14T05:04:26.883Z,93115.69
2022-09-14T05:05:28.517Z,93109.10
2022-09-14T05:06:33.232Z,93111.02
2022-09-14T05:07:34.795Z,93104.10
2022-09-14T05:08:38.191Z,93102.22
2022-09-14T05:09:39.903Z,93101.83
2022-09-14T05:10:41.568Z,93102.58
2022-09-14T05:11:44.196Z,93100.33
2022-09-14T05:12:46.275Z,93104.60
2022-09-14T05:13:50.157Z,93107.70
2022-09-14T05:14:52.604Z,93105.63
2022-09-14T05:15:55.350Z,93106.11
2022-09-14T05:17:00.691Z,93103.75
2022-09-14T05:18:05.184Z,93104.23
2022-09-14T05:19:10.511Z,93102.29
2022-09-14T05:20:12.291Z,93101.06
2022-09-14T05:21:16.790Z,93096.44
2022-09-14T05:22:22.257Z,93096.85
2022-09-14T05:23:24.104Z,93101.78
2022-09-14T05:24:26.035Z,93104.84
2022-09-14T05:25:28.001Z,93100.30
2022-09-14T05:26:31.603Z,93102.65
2022-09-14T05:27:33.351Z,93103.80
2022-09-14T05:28:35.753Z,93102.84
2022-09-14T05:29:39.914Z,93101.85
2022-09-14T05:30:41.570Z,93101.34
2022-09-14T05:31:44.136Z,93100.43
2022-09-14T05:32:46.566Z,93103.51
2022-09-14T05:33:49.040Z,93100.80
2022-09-14T05:34:50.706Z,93099.27
2022-09-14T05:35:52.363Z,93098.40
2022-09-14T05:36:53.979Z,93100.07
2022-09-14T05:37:56.221Z,93099.38
2022-09-14T05:38:57.914Z,93103.18
2022-09-14T05:39:59.630Z,93103.14
2022-09-14T05:41:01.945Z,93103.58
2022-09-14T05:42:03.691Z,93100.54
2022-09-14T05:43:05.566Z,93103.43
2022-09-14T05:44:07.279Z,93096.52
2022-09-14T05:45:09.381Z,93094.66
2022-09-14T05:46:19.582Z,93093.96
2022-09-14T05:47:21.183Z,93091.75
2022-09-14T05:48:22.787Z,93088.10
2022-09-14T05:49:24.897Z,93087.81
2022-09-14T05:50:26.464Z,93086.52
2022-09-14T05:51:28.995Z,93087.10
2022-09-14T05:52:30.740Z,93091.19
2022-09-14T05:53:33.284Z,93090.82
2022-09-14T05:54:34.896Z,93086.02
2022-09-14T05:55:36.555Z,93083.35
2022-09-14T05:56:38.203Z,93085.95
2022-09-14T05:57:40.116Z,93090.45
2022-09-14T05:58:42.845Z,93088.36
2022-09-14T05:59:46.863Z,93088.41
2022-09-14T06:00:51.479Z,93084.30
2022-09-14T06:01:59.092Z,93080.38
2022-09-14T06:03:00.699Z,93076.42
2022-09-14T06:04:03.201Z,93076.66
2022-09-14T06:05:05.397Z,93076.45
2022-09-14T06:06:09.044Z,93076.86
2022-09-14T06:07:18.533Z,93078.25
2022-09-14T06:08:23.218Z,93074.10
2022-09-14T06:09:24.817Z,93075.94
2022-09-14T06:10:26.429Z,93072.27
2022-09-14T06:11:30.560Z,93072.30
2022-09-14T06:12:32.240Z,93077.48
2022-09-14T06:13:34.445Z,93081.48
2022-09-14T06:14:36.163Z,93081.65
2022-09-14T06:15:40.429Z,93087.58
2022-09-14T06:16:42.101Z,93082.97
2022-09-14T06:17:43.666Z,93081.05
2022-09-14T06:18:46.418Z,93078.69
2022-09-14T06:19:48.125Z,93077.25
2022-09-14T06:20:51.620Z,93078.48
2022-09-14T06:21:55.732Z,93079.09
2022-09-14T06:22:57.370Z,93078.55
2022-09-14T06:23:59.528Z,93075.40
2022-09-14T06:25:01.340Z,93081.05
2022-09-14T06:26:04.767Z,93084.22
2022-09-14T06:27:08.546Z,93087.48
2022-09-14T06:28:10.174Z,93083.88
2022-09-14T06:29:11.779Z,93081.34
2022-09-14T06:30:13.467Z,93080.69
2022-09-14T06:31:21.847Z,93077.62
2022-09-14T06:32:26.790Z,93081.48
2022-09-14T06:33:28.831Z,93078.61
2022-09-14T06:34:30.398Z,93080.23
2022-09-14T06:35:32.015Z,93078.56
2022-09-14T06:36:35.651Z,93082.26
2022-09-14T06:37:37.312Z,93080.83
2022-09-14T06:38:41.481Z,93082.65
2022-09-14T06:39:43.655Z,93080.02
2022-09-14T06:40:59.058Z,93081.62
2022-09-14T06:42:03.494Z,93080.38
2022-09-14T06:43:05.231Z,93075.94
2022-09-14T06:44:06.915Z,93077.17
2022-09-14T06:45:09.025Z,93070.31
2022-09-14T06:46:21.171Z,93071.17
2022-09-14T06:47:23.391Z,93070.67
2022-09-14T06:48:26.790Z,93071.59
2022-09-14T06:49:31.593Z,93071.74
2022-09-14T06:50:33.236Z,93066.95
2022-09-14T06:51:37.874Z,93069.98
2022-09-14T06:52:39.725Z,93073.16
2022-09-14T06:53:41.853Z,93072.45
2022-09-14T06:54:43.509Z,93073.87
2022-09-14T06:55:45.367Z,93073.15
2022-09-14T06:56:47.136Z,93076.06
2022-09-14T06:57:51.160Z,93079.06
2022-09-14T06:58:53.302Z,93081.01
2022-09-14T06:59:54.915Z,93078.98
2022-09-14T07:01:01.400Z,93079.98
2022-09-14T07:02:03.035Z,93085.30
2022-09-14T07:03:04.800Z,93086.02
2022-09-14T07:04:07.470Z,93089.38
2022-09-14T07:05:09.526Z,93085.36
2022-09-14T07:06:13.845Z,93089.59
2022-09-14T07:07:16.026Z,93093.98
2022-09-14T07:08:17.655Z,93090.77
2022-09-14T07:09:19.807Z,93094.84
2022-09-14T07:10:21.679Z,93093.28
2022-09-14T07:11:26.069Z,93091.52
2022-09-14T07:12:27.916Z,93091.72
2022-09-14T07:13:31.055Z,93092.35
2022-09-14T07:14:36.269Z,93093.77
2022-09-14T07:15:38.014Z,93097.91
2022-09-14T07:16:40.597Z,93099.73
2022-09-14T07:17:44.911Z,93102.48
2022-09-14T07:18:47.022Z,93106.73
2022-09-14T07:19:48.695Z,93109.72
2022-09-14T07:20:50.360Z,93110.34
2022-09-14T07:21:54.151Z,93114.34
2022-09-14T07:22:55.927Z,93116.94
2022-09-14T07:23:58.061Z,93120.34
2022-09-14T07:25:00.151Z,93120.40
2022-09-14T07:26:05.211Z,93116.46
2022-09-14T07:27:06.990Z,93119.02
2022-09-14T07:28:08.752Z,93119.90
2022-09-14T07:29:18.599Z,93124.00
2022-09-14T07:30:20.703Z,93129.37
2022-09-14T07:31:28.257Z,93130.79
2022-09-14T07:32:31.027Z,93129.13
2022-09-14T07:33:33.184Z,93121.73
2022-09-14T07:34:34.911Z,93131.66
2022-09-14T07:35:36.512Z,93135.70
2022-09-14T07:36:39.021Z,93133.31
2022-09-14T07:37:40.730Z,93124.06
2022-09-14T07:38:52.026Z,93116.80
2022-09-14T07:39:54.124Z,93113.65
2022-09-14T07:40:59.388Z,93110.16
2022-09-14T07:42:01.168Z,93112.77
2022-09-14T07:43:02.895Z,93111.59
2022-09-14T07:44:07.355Z,93110.96
2022-09-14T07:45:10.657Z,93109.29
2022-09-14T07:46:12.329Z,93108.27
2022-09-14T07:47:13.965Z,93107.11
2022-09-14T07:48:15.865Z,93104.17
2022-09-14T07:49:17.896Z,93098.53
2022-09-14T07:50:19.430Z,93102.34
2022-09-14T07:51:21.656Z,93103.63
2022-09-14T07:52:23.428Z,93103.84
2022-09-14T07:53:25.077Z,93104.38
2022-09-14T07:54:26.680Z,93101.49
2022-09-14T07:55:28.274Z,93100.52
2022-09-14T07:56:29.869Z,93100.15
2022-09-14T07:57:52.539Z,93096.96
2022-09-14T07:59:07.093Z,93090.67
2022-09-14T08:00:18.556Z,93085.51
2022-09-14T08:01:20.382Z,93086.47
2022-09-14T08:02:25.014Z,93087.95
2022-09-14T08:03:28.424Z,93088.29
2022-09-14T08:04:30.084Z,93089.58
2022-09-14T08:05:31.902Z,93089.45
2022-09-14T08:06:34.250Z,93087.56
2022-09-14T08:07:35.811Z,93080.95
2022-09-14T08:08:39.936Z,93083.02
2022-09-14T08:09:41.590Z,93082.29
2022-09-14T08:10:46.022Z,93081.58
2022-09-14T08:11:47.779Z,93085.08
2022-09-14T08:12:51.394Z,93085.39
2022-09-14T08:13:59.003Z,93078.02
2022-09-14T08:15:01.737Z,93072.91
2022-09-14T08:16:04.458Z,93071.39
2022-09-14T08:17:06.129Z,93064.06
2022-09-14T08:18:07.932Z,93056.24
2022-09-14T08:19:16.557Z,93060.67
2022-09-14T08:20:18.202Z,93064.30
2022-09-14T08:21:20.029Z,93069.41
2022-09-14T08:22:21.892Z,93068.14
2022-09-14T08:23:24.814Z,93068.17
2022-09-14T08:24:26.674Z,93070.20
2022-09-14T08:25:28.317Z,93066.88
2022-09-14T08:26:30.935Z,93066.11
2022-09-14T08:27:32.856Z,93067.28
2022-09-14T08:28:35.833Z,93066.80
2022-09-14T08:29:39.185Z,93070.70
2022-09-14T08:30:41.111Z,93068.73
2022-09-14T08:31:44.927Z,93071.19
2022-09-14T08:32:46.673Z,93073.20
2022-09-14T08:33:54.867Z,93074.52
2022-09-14T08:34:57.195Z,93076.67
2022-09-14T08:35:59.001Z,93076.09
2022-09-14T08:37:01.170Z,93072.92
2022-09-14T08:38:03.201Z,93077.18
2022-09-14T08:39:08.839Z,93077.79
2022-09-14T08:40:12.892Z,93077.93
2022-09-14T08:41:29.760Z,93081.61
2022-09-14T08:42:31.995Z,93078.73
2022-09-14T08:43:33.726Z,93080.09
2022-09-14T08:44:46.815Z,93074.55
2022-09-14T08:45:50.179Z,93067.20
2022-09-14T08:47:29.004Z,93064.81
2022-09-14T08:48:37.364Z,93074.65
2022-09-14T08:49:54.370Z,93072.34
2022-09-14T08:50:56.375Z,93068.30
2022-09-14T08:52:00.271Z,93073.40
2022-09-14T08:53:01.945Z,93071.98
2022-09-14T08:54:03.590Z,93075.22
2022-09-14T08:55:23.512Z,93077.17
2022-09-14T08:56:31.720Z,93081.35
2022-09-14T08:57:45.286Z,93086.85
2022-09-14T08:58:59.808Z,93098.73
2022-09-14T09:00:12.974Z,93088.05
2022-09-14T09:01:46.718Z,93085.02
2022-09-14T09:03:26.220Z,93088.64
2022-09-14T09:04:33.745Z,93090.34
2022-09-14T09:05:56.702Z,93082.64
2022-09-14T09:07:19.599Z,93076.83
2022-09-14T09:08:30.869Z,93076.16
2022-09-14T09:09:59.164Z,93071.34
2022-09-14T09:11:05.064Z,93064.14
2022-09-14T09:12:12.361Z,93059.38
2022-09-14T09:13:23.489Z,93054.52
2022-09-14T09:14:31.318Z,93061.15
2022-09-14T09:15:44.560Z,93060.28
2022-09-14T09:16:50.926Z,93056.05
2022-09-14T09:18:04.616Z,93058.19
2022-09-14T09:19:13.663Z,93059.34
2022-09-14T09:20:23.017Z,93060.55
2022-09-14T09:21:44.997Z,93053.65
2022-09-14T09:23:12.309Z,93053.29
2022-09-14T09:24:16.440Z,93053.18
2022-09-14T09:25:35.162Z,93054.42
2022-09-14T09:26:38.396Z,93061.36
2022-09-14T09:27:40.087Z,93069.45
2022-09-14T09:28:51.610Z,93065.19
2022-09-14T09:29:53.446Z,93065.40
2022-09-14T09:30:59.218Z,93072.28
2022-09-14T09:32:03.236Z,93071.34
2022-09-14T09:33:05.230Z,93072.54
2022-09-14T09:34:07.260Z,93067.38
2022-09-14T09:35:15.179Z,93072.41
2022-09-14T09:36:17.890Z,93071.52
2022-09-14T09:37:23.103Z,93071.17
2022-09-14T09:38:28.995Z,93081.08
2022-09-14T09:39:38.011Z,93080.23
2022-09-14T09:40:44.471Z,93071.67
2022-09-14T09:41:50.544Z,93067.79
2022-09-14T09:43:05.836Z,93068.67
2022-09-14T09:44:09.870Z,93066.80
2022-09-14T09:45:11.660Z,93068.35
2022-09-14T09:46:14.150Z,93066.90
2022-09-14T09:47:25.447Z,93072.35
2022-09-14T09:48:41.236Z,93065.36
2022-09-14T09:49:44.214Z,93066.59
2022-09-14T09:51:03.555Z,93066.27
2022-09-14T09:52:09.626Z,93063.14
2022-09-14T09:53:16.025Z,93064.77
2022-09-14T09:55:06.192Z,93059.87
2022-09-14T09:56:18.796Z,93063.73
2022-09-14T09:57:30.076Z,93069.61
2022-09-14T09:58:39.131Z,93072.91
2022-09-14T09:59:46.736Z,93075.73
2022-09-14T10:00:59.601Z,93074.99
2022-09-14T10:02:21.533Z,93071.48
2022-09-14T10:03:43.335Z,93074.35
2022-09-14T10:04:58.906Z,93066.09
2022-09-14T10:06:04.771Z,93069.07
2022-09-14T10:07:21.748Z,93081.46
2022-09-14T10:08:26.693Z,93085.45
2022-09-14T10:09:29.971Z,93083.39
2022-09-14T10:10:36.101Z,93080.59
2022-09-14T10:11:39.585Z,93076.70
2022-09-14T10:12:51.934Z,93077.08
2022-09-14T10:13:55.323Z,93076.35
2022-09-14T10:15:22.283Z,93079.30
2022-09-14T10:41:36.350Z,93053.73
2022-09-14T10:42:50.097Z,93058.34
2022-09-14T10:43:59.253Z,93056.66
2022-09-14T10:45:35.530Z,93056.52
2022-09-14T10:46:54.706Z,93055.75
2022-09-14T10:48:26.264Z,93047.79
2022-09-14T10:49:33.821Z,93047.38
2022-09-14T10:50:55.104Z,93053.84
2022-09-14T10:52:27.082Z,93047.63
2022-09-14T10:53:36.700Z,93046.83
2022-09-14T10:55:03.401Z,93049.94
2022-09-14T10:56:16.178Z,93040.92
2022-09-14T10:57:45.921Z,93040.02
2022-09-14T10:58:55.130Z,93033.90
2022-09-14T11:00:19.823Z,93034.94
2022-09-14T11:01:53.574Z,93035.41
2022-09-14T11:03:29.251Z,93027.79
2022-09-14T11:04:54.639Z,93024.10
2022-09-14T11:06:07.968Z,93020.95
2022-09-14T11:07:53.215Z,93027.41
2022-09-14T11:09:01.929Z,93037.38
2022-09-14T11:10:11.058Z,93037.23
2022-09-14T11:11:30.532Z,93036.90
2022-09-14T11:13:11.615Z,93035.41
2022-09-14T11:14:29.813Z,93038.33
2022-09-14T11:15:46.900Z,93036.94
2022-09-14T11:17:28.035Z,93032.45
2022-09-14T11:18:53.656Z,93022.27
2022-09-14T11:20:43.690Z,93019.60
2022-09-14T11:21:49.594Z,93019.00
2022-09-14T11:22:55.654Z,93012.36
2022-09-14T11:24:02.645Z,93017.05
2022-09-14T11:25:18.160Z,93014.91
2022-09-14T11:26:31.779Z,93012.08
2022-09-14T11:27:55.177Z,93012.77
2022-09-14T11:29:13.004Z,93006.00
2022-09-14T11:30:59.037Z,93004.85
2022-09-14T11:32:27.506Z,93007.75
2022-09-14T11:33:44.367Z,93001.19
2022-09-14T11:35:05.754Z,92995.21
2022-09-14T11:36:23.085Z,92987.11
2022-09-14T11:37:43.348Z,92984.88
2022-09-14T11:39:06.542Z,92986.57
2022-09-14T11:40:35.406Z,92979.19
2022-09-14T11:41:46.138Z,92972.09
2022-09-14T11:43:14.048Z,92969.60
2022-09-14T11:44:30.477Z,92968.45
2022-09-14T11:45:41.598Z,92969.20
2022-09-14T11:46:49.778Z,92965.60
2022-09-14T11:48:41.902Z,92963.27
2022-09-14T11:49:58.910Z,92950.96
2022-09-14T11:51:27.944Z,92947.73
2022-09-14T11:52:33.551Z,92945.46
2022-09-14T11:53:36.975Z,92937.63
2022-09-14T11:54:46.076Z,92937.23
2022-09-14T11:55:51.251Z,92940.67
2022-09-14T11:57:05.056Z,92927.41
2022-09-14T11:58:20.365Z,92927.17
2022-09-14T11:59:41.789Z,92929.73
2022-09-14T12:01:02.441Z,92927.11
2022-09-14T12:02:24.161Z,92920.86
2022-09-14T12:04:00.127Z,92924.04
2022-09-14T12:05:10.326Z,92921.21
2022-09-14T12:06:29.449Z,92928.37
2022-09-14T12:07:47.562Z,92928.09
2022-09-14T12:08:50.963Z,92932.48
2022-09-14T12:09:54.350Z,92932.83
2022-09-14T12:11:09.415Z,92931.64
2022-09-14T12:12:30.912Z,92927.93
2022-09-14T12:13:34.737Z,92928.59
2022-09-14T12:14:40.828Z,92933.19
2022-09-14T12:15:45.276Z,92932.23
2022-09-14T12:17:38.881Z,92930.23
2022-09-14T12:18:40.451Z,92940.56
2022-09-14T12:19:49.685Z,92936.79
2022-09-14T12:21:27.758Z,92941.68
2022-09-14T12:22:38.148Z,92938.48
2022-09-14T12:23:44.009Z,92939.45
2022-09-14T12:25:12.972Z,92936.48
2022-09-14T12:26:16.140Z,92931.23
2022-09-14T12:27:23.346Z,92930.05
2022-09-14T12:28:35.171Z,92926.08
2022-09-14T12:29:38.326Z,92921.11
2022-09-14T12:31:04.564Z,92926.92
2022-09-14T12:32:26.853Z,92919.73
2022-09-14T12:33:32.922Z,92922.20
2022-09-14T12:34:36.196Z,92920.39
2022-09-14T12:35:39.535Z,92920.95
2022-09-14T12:36:42.682Z,92923.65
2022-09-14T12:37:46.009Z,92920.33
2022-09-14T12:38:55.501Z,92917.04
2022-09-14T12:40:23.483Z,92922.20
2022-09-14T12:41:26.789Z,92919.84
2022-09-14T12:42:32.423Z,92918.52
2022-09-14T12:43:35.913Z,92922.95
2022-09-14T12:44:43.073Z,92919.64
2022-09-14T12:46:01.525Z,92917.80
2022-09-14T12:47:30.049Z,92920.17
2022-09-14T12:48:48.850Z,92929.64
2022-09-14T12:49:54.716Z,92928.48
2022-09-14T12:50:57.977Z,92924.59
2022-09-14T12:52:11.570Z,92927.22
2022-09-14T12:53:24.995Z,92929.17
2022-09-14T12:54:31.067Z,92920.59
2022-09-14T12:56:01.235Z,92934.67
2022-09-14T12:57:26.146Z,92927.95
2022-09-14T12:58:44.321Z,92927.20
2022-09-14T13:00:02.398Z,92921.67
2022-09-14T13:01:29.552Z,92923.98
2022-09-14T13:02:47.698Z,92923.18
2022-09-14T13:03:54.187Z,92931.40
2022-09-14T13:04:59.422Z,92931.45
2022-09-14T13:06:03.343Z,92930.17
2022-09-14T13:07:16.090Z,92934.80
2022-09-14T13:08:23.880Z,92941.97
2022-09-14T13:09:30.768Z,92940.20
2022-09-14T13:10:44.396Z,92939.95
2022-09-14T13:11:54.369Z,92936.66
2022-09-14T13:13:00.514Z,92937.61
2022-09-14T13:14:04.120Z,92938.98
2022-09-14T13:15:39.649Z,92924.59
2022-09-14T13:16:49.794Z,92926.34
2022-09-14T13:18:19.296Z,92929.80
2022-09-14T13:19:25.819Z,92934.48
2022-09-14T13:20:34.686Z,92929.01
2022-09-14T13:21:47.026Z,92925.45
2022-09-14T13:22:50.231Z,92929.40
2022-09-14T13:23:53.397Z,92933.80
2022-09-14T13:24:56.714Z,92930.17
2022-09-14T13:26:00.640Z,92928.70
2022-09-14T13:27:06.216Z,92928.41
2022-09-14T13:28:15.849Z,92926.12
2022-09-14T13:29:19.673Z,92921.71
2022-09-14T13:30:26.152Z,92918.15
2022-09-14T13:31:39.004Z,92914.56
2022-09-14T13:32:45.752Z,92913.14
2022-09-14T13:33:51.673Z,92929.11
2022-09-14T13:34:55.383Z,92930.24
2022-09-14T13:36:01.565Z,92931.74
2022-09-14T13:37:05.786Z,92931.06
2022-09-14T13:38:24.608Z,92933.34
2022-09-14T13:39:40.394Z,92928.90
2022-09-14T13:40:44.450Z,92933.66
2022-09-14T13:41:48.361Z,92932.29
2022-09-14T13:42:52.406Z,92934.98
2022-09-14T13:43:58.816Z,92938.11